Aérodrome :
LOGIN :

S'inscrire | Disclaimer

   EN    FR    IT 

 










Légende :    VFR   VFR Marginal   IFR   IFR Intensif   IFR Très Intensif
Visi : 
Plafond : 
>= 8 km
>= 3000ft
5 à 8 km
1000 à 3000 ft
1500m à 5 km
500 à 1000 ft
800 à 1500m
200 à 500 ft
< 800m
< 200 ft
Symboles :   Orages  Brouillard  Fortes neiges  Fortes précipitations  Vent > 20 kt
SIGMETs :   Divers  Orages  Givrage  Turbulence  Onde Orograph.  Cendres Volcan.







- Altitude de l'aérodrome : 141 ft
- Code IATA : SKS


EKSP - Srydstrup Vojens

DERNIER METAR :
  • 211020Z 26016KT 9999 -SHRA BKN012 SCT015TCU 17/15 Q1014

METARs EXPIRÉS :
  • 211017Z 26016KT 9999 BKN012 BKN017 17/15 Q1014
  • 210950Z 25017KT 9999 SCT012 FEW015TCU BKN020 18/15 Q1014
  • 210920Z 26015KT 9999 -SHRA SCT012 FEW015TCU BKN020 17/15 Q1014
  • 210850Z 25017KT 9999 SCT008 SCT012 BKN020 17/15 Q1013
  • 210820Z 25014KT 9999 SCT008 FEW015TCU BKN017 17/15 Q1013
  • 210750Z 25014KT 9999 FEW009 SCT014 BKN017 17/15 Q1012

TAF TAF EKSP
Valide du 21 à 09h jusqu'au 22 à 09h UTC


210827Z 2109/2209 25015KT 9999 FEW010 BKN020
TEMPO 2109/2113 5000 -SHRA BKN006 FEW020CB
BECMG 2109/2111 26015G27KT
TEMPO 2113/2116 BKN012
BECMG 2116/2119 24007KT
TEMPO 2123/2205 3000 BR BKN006
BECMG 2205/2208 19010KT 7000 -RA BKN012
Pas de NOTAMs connus pour ce terrain.



MET'MAP, la Météo Aéronautique d'un coup d'oeil ! - Copyright ORBIFLY Décembre 2007 - Disclaimer

ORBIFLY MET'MAP TEAM :

Programmation & Développement : Alexandra Zaïnal
Conception & Développement : Baudouin d'Aumeries
Co-Programmation & Développement : Marc-Olivier Méhu
Soutien technique & logistique : Manuel Goepfert

Contact : metmap@orbifly.com




SOURCES & CREDITS :

   NOAA